sensor_id;sensor_type;location;lat;lon;timestamp;P1;durP1;ratioP1;P2;durP2;ratioP2
12654;SDS011;6392;44.644;11.448;2022-08-21T00:01:44;5.80;;;4.50;;
12654;SDS011;6392;44.644;11.448;2022-08-21T00:04:12;4.80;;;4.33;;
12654;SDS011;6392;44.644;11.448;2022-08-21T00:06:39;6.03;;;4.90;;
12654;SDS011;6392;44.644;11.448;2022-08-21T00:09:07;5.47;;;4.77;;
12654;SDS011;6392;44.644;11.448;2022-08-21T00:11:35;6.10;;;4.27;;
12654;SDS011;6392;44.644;11.448;2022-08-21T00:14:04;5.17;;;4.67;;
12654;SDS011;6392;44.644;11.448;2022-08-21T00:16:34;8.87;;;4.63;;
12654;SDS011;6392;44.644;11.448;2022-08-21T00:19:03;6.13;;;4.37;;
12654;SDS011;6392;44.644;11.448;2022-08-21T00:21:31;4.83;;;4.33;;
12654;SDS011;6392;44.644;11.448;2022-08-21T00:23:58;5.53;;;4.30;;
12654;SDS011;6392;44.644;11.448;2022-08-21T00:26:26;6.27;;;4.40;;
12654;SDS011;6392;44.644;11.448;2022-08-21T00:28:53;5.10;;;4.20;;
12654;SDS011;6392;44.644;11.448;2022-08-21T00:31:20;8.10;;;4.23;;
12654;SDS011;6392;44.644;11.448;2022-08-21T00:33:47;6.23;;;4.27;;
12654;SDS011;6392;44.644;11.448;2022-08-21T00:36:15;6.40;;;4.10;;
12654;SDS011;6392;44.644;11.448;2022-08-21T00:38:42;5.07;;;3.93;;
12654;SDS011;6392;44.644;11.448;2022-08-21T00:41:10;6.37;;;3.47;;
12654;SDS011;6392;44.644;11.448;2022-08-21T00:43:38;4.03;;;2.93;;
12654;SDS011;6392;44.644;11.448;2022-08-21T00:46:06;7.87;;;3.17;;
12654;SDS011;6392;44.644;11.448;2022-08-21T00:48:34;6.13;;;3.10;;
12654;SDS011;6392;44.644;11.448;2022-08-21T00:51:02;7.27;;;3.77;;
12654;SDS011;6392;44.644;11.448;2022-08-21T00:53:34;4.37;;;3.57;;
12654;SDS011;6392;44.644;11.448;2022-08-21T00:56:04;5.80;;;3.03;;
12654;SDS011;6392;44.644;11.448;2022-08-21T00:58:33;4.80;;;3.50;;
12654;SDS011;6392;44.644;11.448;2022-08-21T01:01:03;7.53;;;3.90;;
12654;SDS011;6392;44.644;11.448;2022-08-21T01:03:32;3.73;;;3.43;;
12654;SDS011;6392;44.644;11.448;2022-08-21T01:05:59;5.40;;;3.20;;
12654;SDS011;6392;44.644;11.448;2022-08-21T01:08:27;4.90;;;3.23;;
12654;SDS011;6392;44.644;11.448;2022-08-21T01:10:56;6.27;;;3.30;;
12654;SDS011;6392;44.644;11.448;2022-08-21T01:13:24;7.67;;;2.97;;
12654;SDS011;6392;44.644;11.448;2022-08-21T01:15:54;3.77;;;3.23;;
12654;SDS011;6392;44.644;11.448;2022-08-21T01:18:22;4.43;;;2.80;;
12654;SDS011;6392;44.644;11.448;2022-08-21T01:21:02;3.93;;;2.80;;
12654;SDS011;6392;44.644;11.448;2022-08-21T01:23:32;3.43;;;2.70;;
12654;SDS011;6392;44.644;11.448;2022-08-21T01:25:59;3.83;;;2.37;;
12654;SDS011;6392;44.644;11.448;2022-08-21T01:28:26;3.43;;;2.80;;
12654;SDS011;6392;44.644;11.448;2022-08-21T01:30:56;5.87;;;2.73;;
12654;SDS011;6392;44.644;11.448;2022-08-21T01:33:24;3.93;;;3.40;;
12654;SDS011;6392;44.644;11.448;2022-08-21T01:35:51;2.60;;;2.40;;
12654;SDS011;6392;44.644;11.448;2022-08-21T01:38:20;2.90;;;2.60;;
12654;SDS011;6392;44.644;11.448;2022-08-21T01:40:47;2.60;;;2.10;;
12654;SDS011;6392;44.644;11.448;2022-08-21T01:43:14;3.57;;;2.20;;
12654;SDS011;6392;44.644;11.448;2022-08-21T01:45:41;3.10;;;1.80;;
12654;SDS011;6392;44.644;11.448;2022-08-21T01:48:08;4.33;;;2.10;;
12654;SDS011;6392;44.644;11.448;2022-08-21T01:50:35;2.23;;;1.87;;
12654;SDS011;6392;44.644;11.448;2022-08-21T01:53:02;2.23;;;1.87;;
12654;SDS011;6392;44.644;11.448;2022-08-21T01:55:31;2.47;;;1.87;;
12654;SDS011;6392;44.644;11.448;2022-08-21T01:57:58;2.57;;;1.60;;
12654;SDS011;6392;44.644;11.448;2022-08-21T02:00:26;2.37;;;2.10;;
12654;SDS011;6392;44.644;11.448;2022-08-21T02:02:53;3.80;;;1.80;;
12654;SDS011;6392;44.644;11.448;2022-08-21T02:05:20;3.37;;;2.10;;
12654;SDS011;6392;44.644;11.448;2022-08-21T02:07:48;2.27;;;1.70;;
12654;SDS011;6392;44.644;11.448;2022-08-21T02:10:19;7.10;;;1.73;;
12654;SDS011;6392;44.644;11.448;2022-08-21T02:12:49;2.60;;;1.50;;
12654;SDS011;6392;44.644;11.448;2022-08-21T02:15:16;3.70;;;2.00;;
12654;SDS011;6392;44.644;11.448;2022-08-21T02:17:45;2.20;;;1.57;;
12654;SDS011;6392;44.644;11.448;2022-08-21T02:20:15;3.60;;;1.87;;
12654;SDS011;6392;44.644;11.448;2022-08-21T02:22:44;2.43;;;1.60;;
12654;SDS011;6392;44.644;11.448;2022-08-21T02:25:12;4.03;;;1.60;;
12654;SDS011;6392;44.644;11.448;2022-08-21T02:27:39;2.70;;;1.90;;
12654;SDS011;6392;44.644;11.448;2022-08-21T02:30:10;4.60;;;1.53;;
12654;SDS011;6392;44.644;11.448;2022-08-21T02:32:39;4.70;;;1.90;;
12654;SDS011;6392;44.644;11.448;2022-08-21T02:35:07;1.83;;;1.50;;
12654;SDS011;6392;44.644;11.448;2022-08-21T02:37:42;3.30;;;1.40;;
12654;SDS011;6392;44.644;11.448;2022-08-21T02:40:11;2.33;;;1.70;;
12654;SDS011;6392;44.644;11.448;2022-08-21T02:42:38;1.87;;;1.70;;
12654;SDS011;6392;44.644;11.448;2022-08-21T02:45:06;6.47;;;2.00;;
12654;SDS011;6392;44.644;11.448;2022-08-21T02:47:35;2.83;;;1.87;;
12654;SDS011;6392;44.644;11.448;2022-08-21T02:50:03;2.17;;;1.70;;
12654;SDS011;6392;44.644;11.448;2022-08-21T02:52:30;1.60;;;1.40;;
12654;SDS011;6392;44.644;11.448;2022-08-21T02:54:58;1.87;;;1.77;;
12654;SDS011;6392;44.644;11.448;2022-08-21T02:57:25;3.57;;;1.80;;
12654;SDS011;6392;44.644;11.448;2022-08-21T02:59:52;2.50;;;1.57;;
12654;SDS011;6392;44.644;11.448;2022-08-21T03:02:19;2.63;;;1.60;;
12654;SDS011;6392;44.644;11.448;2022-08-21T03:04:48;2.23;;;1.70;;
12654;SDS011;6392;44.644;11.448;2022-08-21T03:07:15;2.97;;;1.80;;
12654;SDS011;6392;44.644;11.448;2022-08-21T03:09:42;2.77;;;1.80;;
12654;SDS011;6392;44.644;11.448;2022-08-21T03:12:10;4.23;;;1.73;;
12654;SDS011;6392;44.644;11.448;2022-08-21T03:14:37;1.40;;;1.30;;
12654;SDS011;6392;44.644;11.448;2022-08-21T03:17:04;1.93;;;1.80;;
12654;SDS011;6392;44.644;11.448;2022-08-21T03:19:32;2.30;;;1.50;;
12654;SDS011;6392;44.644;11.448;2022-08-21T03:22:00;3.80;;;1.60;;
12654;SDS011;6392;44.644;11.448;2022-08-21T03:24:27;2.13;;;1.80;;
12654;SDS011;6392;44.644;11.448;2022-08-21T03:26:54;3.03;;;1.70;;
12654;SDS011;6392;44.644;11.448;2022-08-21T03:29:21;2.03;;;1.50;;
12654;SDS011;6392;44.644;11.448;2022-08-21T03:31:49;3.73;;;1.63;;
12654;SDS011;6392;44.644;11.448;2022-08-21T03:34:17;3.67;;;2.13;;
12654;SDS011;6392;44.644;11.448;2022-08-21T03:36:44;3.27;;;2.00;;
12654;SDS011;6392;44.644;11.448;2022-08-21T03:39:13;2.60;;;1.50;;
12654;SDS011;6392;44.644;11.448;2022-08-21T03:41:40;2.30;;;1.80;;
12654;SDS011;6392;44.644;11.448;2022-08-21T03:44:07;2.63;;;1.53;;
12654;SDS011;6392;44.644;11.448;2022-08-21T03:46:34;1.87;;;1.63;;
12654;SDS011;6392;44.644;11.448;2022-08-21T03:49:01;5.67;;;2.00;;
12654;SDS011;6392;44.644;11.448;2022-08-21T03:51:29;2.90;;;1.70;;
12654;SDS011;6392;44.644;11.448;2022-08-21T03:53:57;2.33;;;1.90;;
12654;SDS011;6392;44.644;11.448;2022-08-21T03:56:25;2.10;;;1.70;;
12654;SDS011;6392;44.644;11.448;2022-08-21T03:58:53;1.60;;;1.50;;
12654;SDS011;6392;44.644;11.448;2022-08-21T04:01:20;1.70;;;1.60;;
12654;SDS011;6392;44.644;11.448;2022-08-21T04:03:47;1.87;;;1.70;;
12654;SDS011;6392;44.644;11.448;2022-08-21T04:06:14;2.30;;;1.60;;
12654;SDS011;6392;44.644;11.448;2022-08-21T04:08:41;4.40;;;1.67;;
12654;SDS011;6392;44.644;11.448;2022-08-21T04:11:08;2.00;;;1.50;;
12654;SDS011;6392;44.644;11.448;2022-08-21T04:13:37;1.57;;;1.47;;
12654;SDS011;6392;44.644;11.448;2022-08-21T04:16:05;2.73;;;1.30;;
12654;SDS011;6392;44.644;11.448;2022-08-21T04:18:34;2.33;;;1.43;;
12654;SDS011;6392;44.644;11.448;2022-08-21T04:21:01;2.07;;;1.40;;
12654;SDS011;6392;44.644;11.448;2022-08-21T04:23:29;3.50;;;1.83;;
12654;SDS011;6392;44.644;11.448;2022-08-21T04:25:56;1.87;;;1.60;;
12654;SDS011;6392;44.644;11.448;2022-08-21T04:28:24;2.50;;;1.67;;
12654;SDS011;6392;44.644;11.448;2022-08-21T04:30:54;3.10;;;1.70;;
12654;SDS011;6392;44.644;11.448;2022-08-21T04:33:22;1.77;;;1.67;;
12654;SDS011;6392;44.644;11.448;2022-08-21T04:35:50;2.30;;;1.63;;
12654;SDS011;6392;44.644;11.448;2022-08-21T04:38:17;3.00;;;1.67;;
12654;SDS011;6392;44.644;11.448;2022-08-21T04:40:45;1.83;;;1.73;;
12654;SDS011;6392;44.644;11.448;2022-08-21T04:43:13;1.90;;;1.70;;
12654;SDS011;6392;44.644;11.448;2022-08-21T04:45:41;3.50;;;1.77;;
12654;SDS011;6392;44.644;11.448;2022-08-21T04:48:12;1.87;;;1.77;;
12654;SDS011;6392;44.644;11.448;2022-08-21T04:50:41;2.30;;;1.83;;
12654;SDS011;6392;44.644;11.448;2022-08-21T04:53:14;3.10;;;1.80;;
12654;SDS011;6392;44.644;11.448;2022-08-21T04:55:44;1.83;;;1.73;;
12654;SDS011;6392;44.644;11.448;2022-08-21T04:58:13;3.50;;;1.90;;
12654;SDS011;6392;44.644;11.448;2022-08-21T05:00:43;2.70;;;2.30;;
12654;SDS011;6392;44.644;11.448;2022-08-21T05:03:12;2.57;;;1.87;;
12654;SDS011;6392;44.644;11.448;2022-08-21T05:05:42;4.17;;;1.90;;
12654;SDS011;6392;44.644;11.448;2022-08-21T05:08:11;2.07;;;1.53;;
12654;SDS011;6392;44.644;11.448;2022-08-21T05:10:40;2.53;;;1.60;;
12654;SDS011;6392;44.644;11.448;2022-08-21T05:13:09;1.80;;;1.70;;
12654;SDS011;6392;44.644;11.448;2022-08-21T05:15:38;3.80;;;1.70;;
12654;SDS011;6392;44.644;11.448;2022-08-21T05:18:05;2.40;;;1.67;;
12654;SDS011;6392;44.644;11.448;2022-08-21T05:20:34;2.73;;;1.80;;
12654;SDS011;6392;44.644;11.448;2022-08-21T05:23:01;3.20;;;1.60;;
12654;SDS011;6392;44.644;11.448;2022-08-21T05:25:33;2.80;;;1.60;;
12654;SDS011;6392;44.644;11.448;2022-08-21T05:28:00;2.47;;;1.57;;
12654;SDS011;6392;44.644;11.448;2022-08-21T05:30:28;2.23;;;1.70;;
12654;SDS011;6392;44.644;11.448;2022-08-21T05:32:55;1.93;;;1.77;;
12654;SDS011;6392;44.644;11.448;2022-08-21T05:35:24;2.87;;;1.73;;
12654;SDS011;6392;44.644;11.448;2022-08-21T05:37:53;4.07;;;1.77;;
12654;SDS011;6392;44.644;11.448;2022-08-21T05:40:20;3.17;;;1.80;;
12654;SDS011;6392;44.644;11.448;2022-08-21T05:42:47;2.97;;;1.90;;
12654;SDS011;6392;44.644;11.448;2022-08-21T05:45:15;2.87;;;1.60;;
12654;SDS011;6392;44.644;11.448;2022-08-21T05:47:42;1.80;;;1.47;;
12654;SDS011;6392;44.644;11.448;2022-08-21T05:50:10;2.67;;;1.70;;
12654;SDS011;6392;44.644;11.448;2022-08-21T05:52:37;2.40;;;2.23;;
12654;SDS011;6392;44.644;11.448;2022-08-21T05:55:06;3.13;;;1.70;;
12654;SDS011;6392;44.644;11.448;2022-08-21T05:57:33;2.20;;;2.00;;
12654;SDS011;6392;44.644;11.448;2022-08-21T06:00:00;1.77;;;1.47;;
12654;SDS011;6392;44.644;11.448;2022-08-21T06:02:28;1.73;;;1.50;;
12654;SDS011;6392;44.644;11.448;2022-08-21T06:04:56;1.53;;;1.40;;
12654;SDS011;6392;44.644;11.448;2022-08-21T06:07:23;1.80;;;1.60;;
12654;SDS011;6392;44.644;11.448;2022-08-21T06:09:50;3.13;;;1.43;;
12654;SDS011;6392;44.644;11.448;2022-08-21T06:12:19;1.30;;;1.20;;
12654;SDS011;6392;44.644;11.448;2022-08-21T06:14:47;2.07;;;1.30;;
12654;SDS011;6392;44.644;11.448;2022-08-21T06:17:15;1.50;;;1.20;;
12654;SDS011;6392;44.644;11.448;2022-08-21T06:19:42;1.93;;;1.30;;
12654;SDS011;6392;44.644;11.448;2022-08-21T06:22:09;1.80;;;1.67;;
12654;SDS011;6392;44.644;11.448;2022-08-21T06:24:36;3.27;;;1.50;;
12654;SDS011;6392;44.644;11.448;2022-08-21T06:27:04;2.40;;;1.53;;
12654;SDS011;6392;44.644;11.448;2022-08-21T06:29:34;2.13;;;1.53;;
12654;SDS011;6392;44.644;11.448;2022-08-21T06:32:01;1.63;;;1.20;;
12654;SDS011;6392;44.644;11.448;2022-08-21T06:34:31;2.80;;;1.50;;
12654;SDS011;6392;44.644;11.448;2022-08-21T06:37:02;2.00;;;1.50;;
12654;SDS011;6392;44.644;11.448;2022-08-21T06:39:30;1.27;;;1.17;;
12654;SDS011;6392;44.644;11.448;2022-08-21T06:41:57;2.00;;;1.23;;
12654;SDS011;6392;44.644;11.448;2022-08-21T06:44:24;1.60;;;1.10;;
12654;SDS011;6392;44.644;11.448;2022-08-21T06:46:53;1.40;;;1.30;;
12654;SDS011;6392;44.644;11.448;2022-08-21T06:49:20;2.03;;;1.20;;
12654;SDS011;6392;44.644;11.448;2022-08-21T06:51:47;1.47;;;1.30;;
12654;SDS011;6392;44.644;11.448;2022-08-21T06:54:14;1.50;;;1.40;;
12654;SDS011;6392;44.644;11.448;2022-08-21T06:56:41;2.20;;;1.60;;
12654;SDS011;6392;44.644;11.448;2022-08-21T06:59:08;2.77;;;1.17;;
12654;SDS011;6392;44.644;11.448;2022-08-21T07:01:35;2.40;;;1.40;;
12654;SDS011;6392;44.644;11.448;2022-08-21T07:04:04;1.50;;;1.40;;
12654;SDS011;6392;44.644;11.448;2022-08-21T07:06:31;2.10;;;1.67;;
12654;SDS011;6392;44.644;11.448;2022-08-21T07:08:58;2.60;;;1.27;;
12654;SDS011;6392;44.644;11.448;2022-08-21T07:11:26;1.97;;;1.77;;
12654;SDS011;6392;44.644;11.448;2022-08-21T07:13:53;2.00;;;1.77;;
12654;SDS011;6392;44.644;11.448;2022-08-21T07:16:21;1.40;;;1.30;;
12654;SDS011;6392;44.644;11.448;2022-08-21T07:18:49;3.27;;;1.50;;
12654;SDS011;6392;44.644;11.448;2022-08-21T07:21:17;2.03;;;1.87;;
12654;SDS011;6392;44.644;11.448;2022-08-21T07:23:46;1.63;;;1.30;;
12654;SDS011;6392;44.644;11.448;2022-08-21T07:26:15;1.93;;;1.57;;
12654;SDS011;6392;44.644;11.448;2022-08-21T07:28:44;1.73;;;1.40;;
12654;SDS011;6392;44.644;11.448;2022-08-21T07:31:13;3.63;;;1.43;;
12654;SDS011;6392;44.644;11.448;2022-08-21T07:33:41;1.83;;;1.33;;
12654;SDS011;6392;44.644;11.448;2022-08-21T07:36:09;3.07;;;1.50;;
12654;SDS011;6392;44.644;11.448;2022-08-21T07:38:37;1.83;;;1.57;;
12654;SDS011;6392;44.644;11.448;2022-08-21T07:41:07;2.93;;;1.77;;
12654;SDS011;6392;44.644;11.448;2022-08-21T07:43:39;2.10;;;1.40;;
12654;SDS011;6392;44.644;11.448;2022-08-21T07:46:06;2.37;;;1.47;;
12654;SDS011;6392;44.644;11.448;2022-08-21T07:48:33;2.60;;;1.30;;
12654;SDS011;6392;44.644;11.448;2022-08-21T07:51:01;3.03;;;1.70;;
12654;SDS011;6392;44.644;11.448;2022-08-21T07:53:31;1.63;;;1.43;;
12654;SDS011;6392;44.644;11.448;2022-08-21T07:56:00;1.93;;;1.50;;
12654;SDS011;6392;44.644;11.448;2022-08-21T07:58:27;1.60;;;1.30;;
12654;SDS011;6392;44.644;11.448;2022-08-21T08:00:54;1.87;;;1.50;;
12654;SDS011;6392;44.644;11.448;2022-08-21T08:03:21;1.80;;;1.40;;
12654;SDS011;6392;44.644;11.448;2022-08-21T08:05:48;1.47;;;1.37;;
12654;SDS011;6392;44.644;11.448;2022-08-21T08:08:16;2.00;;;1.43;;
12654;SDS011;6392;44.644;11.448;2022-08-21T08:10:43;2.77;;;1.50;;
12654;SDS011;6392;44.644;11.448;2022-08-21T08:13:12;3.53;;;1.67;;
12654;SDS011;6392;44.644;11.448;2022-08-21T08:15:39;2.53;;;1.50;;
12654;SDS011;6392;44.644;11.448;2022-08-21T08:18:06;2.30;;;1.57;;
12654;SDS011;6392;44.644;11.448;2022-08-21T08:20:33;3.20;;;1.60;;
12654;SDS011;6392;44.644;11.448;2022-08-21T08:23:00;3.07;;;1.80;;
12654;SDS011;6392;44.644;11.448;2022-08-21T08:25:29;2.47;;;1.60;;
12654;SDS011;6392;44.644;11.448;2022-08-21T08:27:56;1.90;;;1.60;;
12654;SDS011;6392;44.644;11.448;2022-08-21T08:30:24;2.27;;;1.73;;
12654;SDS011;6392;44.644;11.448;2022-08-21T08:32:51;1.93;;;1.80;;
12654;SDS011;6392;44.644;11.448;2022-08-21T08:35:18;4.20;;;1.80;;
12654;SDS011;6392;44.644;11.448;2022-08-21T08:37:45;2.33;;;1.90;;
12654;SDS011;6392;44.644;11.448;2022-08-21T08:40:14;2.60;;;1.83;;
12654;SDS011;6392;44.644;11.448;2022-08-21T08:42:46;2.23;;;1.90;;
12654;SDS011;6392;44.644;11.448;2022-08-21T08:45:17;3.10;;;2.23;;
12654;SDS011;6392;44.644;11.448;2022-08-21T08:47:49;2.47;;;2.10;;
12654;SDS011;6392;44.644;11.448;2022-08-21T08:50:23;3.03;;;2.47;;
12654;SDS011;6392;44.644;11.448;2022-08-21T08:52:54;2.17;;;1.93;;
12654;SDS011;6392;44.644;11.448;2022-08-21T08:55:28;3.10;;;2.70;;
12654;SDS011;6392;44.644;11.448;2022-08-21T08:58:00;4.17;;;2.37;;
12654;SDS011;6392;44.644;11.448;2022-08-21T09:00:28;3.07;;;2.60;;
12654;SDS011;6392;44.644;11.448;2022-08-21T09:03:00;2.87;;;2.40;;
12654;SDS011;6392;44.644;11.448;2022-08-21T09:05:29;3.03;;;2.23;;
12654;SDS011;6392;44.644;11.448;2022-08-21T09:08:11;2.30;;;2.10;;
12654;SDS011;6392;44.644;11.448;2022-08-21T09:10:47;2.60;;;2.23;;
12654;SDS011;6392;44.644;11.448;2022-08-21T09:13:24;2.60;;;2.17;;
12654;SDS011;6392;44.644;11.448;2022-08-21T09:16:05;3.80;;;2.57;;
12654;SDS011;6392;44.644;11.448;2022-08-21T09:18:42;3.13;;;2.70;;
12654;SDS011;6392;44.644;11.448;2022-08-21T09:21:20;2.90;;;2.70;;
12654;SDS011;6392;44.644;11.448;2022-08-21T09:23:55;3.57;;;2.60;;
12654;SDS011;6392;44.644;11.448;2022-08-21T09:26:28;3.90;;;2.50;;
12654;SDS011;6392;44.644;11.448;2022-08-21T09:28:59;3.50;;;2.73;;
12654;SDS011;6392;44.644;11.448;2022-08-21T09:31:27;4.47;;;3.33;;
12654;SDS011;6392;44.644;11.448;2022-08-21T09:33:59;3.00;;;2.70;;
12654;SDS011;6392;44.644;11.448;2022-08-21T09:36:31;3.30;;;2.67;;
12654;SDS011;6392;44.644;11.448;2022-08-21T09:39:05;3.60;;;2.80;;
12654;SDS011;6392;44.644;11.448;2022-08-21T09:41:33;4.53;;;2.60;;
12654;SDS011;6392;44.644;11.448;2022-08-21T09:44:01;2.00;;;1.80;;
12654;SDS011;6392;44.644;11.448;2022-08-21T09:46:30;2.53;;;2.07;;
12654;SDS011;6392;44.644;11.448;2022-08-21T09:48:59;3.10;;;2.13;;
12654;SDS011;6392;44.644;11.448;2022-08-21T09:51:28;3.23;;;2.93;;
12654;SDS011;6392;44.644;11.448;2022-08-21T09:53:58;2.50;;;2.20;;
12654;SDS011;6392;44.644;11.448;2022-08-21T09:56:39;1.90;;;1.70;;
12654;SDS011;6392;44.644;11.448;2022-08-21T09:59:37;3.43;;;2.73;;
12654;SDS011;6392;44.644;11.448;2022-08-21T10:02:17;4.73;;;3.13;;
12654;SDS011;6392;44.644;11.448;2022-08-21T10:04:54;3.90;;;2.67;;
12654;SDS011;6392;44.644;11.448;2022-08-21T10:07:23;2.90;;;2.23;;
12654;SDS011;6392;44.644;11.448;2022-08-21T10:09:59;5.20;;;4.13;;
12654;SDS011;6392;44.644;11.448;2022-08-21T10:12:31;1.20;;;1.10;;
12654;SDS011;6392;44.644;11.448;2022-08-21T10:15:08;4.30;;;2.40;;
12654;SDS011;6392;44.644;11.448;2022-08-21T10:17:44;3.10;;;2.63;;
12654;SDS011;6392;44.644;11.448;2022-08-21T10:20:22;1.47;;;1.37;;
12654;SDS011;6392;44.644;11.448;2022-08-21T10:23:02;1.50;;;1.30;;
12654;SDS011;6392;44.644;11.448;2022-08-21T10:25:37;3.33;;;2.17;;
12654;SDS011;6392;44.644;11.448;2022-08-21T10:28:12;1.20;;;1.10;;
12654;SDS011;6392;44.644;11.448;2022-08-21T10:30:45;1.73;;;1.57;;
12654;SDS011;6392;44.644;11.448;2022-08-21T10:33:22;1.23;;;1.07;;
12654;SDS011;6392;44.644;11.448;2022-08-21T10:36:01;1.27;;;1.17;;
12654;SDS011;6392;44.644;11.448;2022-08-21T10:38:43;1.10;;;0.93;;
12654;SDS011;6392;44.644;11.448;2022-08-21T10:41:27;4.63;;;1.80;;
12654;SDS011;6392;44.644;11.448;2022-08-21T10:44:08;1.93;;;1.50;;
12654;SDS011;6392;44.644;11.448;2022-08-21T10:46:48;2.10;;;1.83;;
12654;SDS011;6392;44.644;11.448;2022-08-21T10:49:22;3.23;;;1.47;;
12654;SDS011;6392;44.644;11.448;2022-08-21T10:52:02;1.87;;;1.70;;
12654;SDS011;6392;44.644;11.448;2022-08-21T10:54:44;2.80;;;1.63;;
12654;SDS011;6392;44.644;11.448;2022-08-21T10:57:19;3.03;;;1.90;;
12654;SDS011;6392;44.644;11.448;2022-08-21T11:00:02;3.47;;;1.70;;
12654;SDS011;6392;44.644;11.448;2022-08-21T11:02:33;1.40;;;1.10;;
12654;SDS011;6392;44.644;11.448;2022-08-21T11:05:05;4.03;;;1.77;;
12654;SDS011;6392;44.644;11.448;2022-08-21T11:07:43;2.17;;;1.97;;
12654;SDS011;6392;44.644;11.448;2022-08-21T11:10:15;1.87;;;1.73;;
12654;SDS011;6392;44.644;11.448;2022-08-21T11:12:48;1.20;;;1.00;;
12654;SDS011;6392;44.644;11.448;2022-08-21T11:15:24;1.30;;;1.20;;
12654;SDS011;6392;44.644;11.448;2022-08-21T11:18:01;1.53;;;1.43;;
12654;SDS011;6392;44.644;11.448;2022-08-21T11:20:37;1.50;;;1.30;;
12654;SDS011;6392;44.644;11.448;2022-08-21T11:23:11;1.50;;;1.40;;
12654;SDS011;6392;44.644;11.448;2022-08-21T11:25:44;1.40;;;1.30;;
12654;SDS011;6392;44.644;11.448;2022-08-21T11:28:16;1.70;;;1.20;;
12654;SDS011;6392;44.644;11.448;2022-08-21T11:30:52;1.50;;;1.40;;
12654;SDS011;6392;44.644;11.448;2022-08-21T11:33:29;1.40;;;1.30;;
12654;SDS011;6392;44.644;11.448;2022-08-21T11:36:08;1.10;;;1.00;;
12654;SDS011;6392;44.644;11.448;2022-08-21T11:38:46;1.80;;;1.40;;
12654;SDS011;6392;44.644;11.448;2022-08-21T11:41:23;1.10;;;1.00;;
12654;SDS011;6392;44.644;11.448;2022-08-21T11:43:56;1.33;;;1.20;;
12654;SDS011;6392;44.644;11.448;2022-08-21T11:46:33;0.80;;;0.80;;
12654;SDS011;6392;44.644;11.448;2022-08-21T11:49:11;1.10;;;1.00;;
12654;SDS011;6392;44.644;11.448;2022-08-21T11:51:53;2.00;;;1.80;;
12654;SDS011;6392;44.644;11.448;2022-08-21T11:54:33;1.30;;;1.10;;
12654;SDS011;6392;44.644;11.448;2022-08-21T11:57:04;1.20;;;1.10;;
12654;SDS011;6392;44.644;11.448;2022-08-21T11:59:40;1.30;;;1.17;;
12654;SDS011;6392;44.644;11.448;2022-08-21T12:02:12;1.40;;;1.10;;
12654;SDS011;6392;44.644;11.448;2022-08-21T12:04:43;1.40;;;1.20;;
12654;SDS011;6392;44.644;11.448;2022-08-21T12:07:15;1.30;;;1.20;;
12654;SDS011;6392;44.644;11.448;2022-08-21T12:09:53;1.20;;;1.10;;
12654;SDS011;6392;44.644;11.448;2022-08-21T12:12:26;1.20;;;1.10;;
12654;SDS011;6392;44.644;11.448;2022-08-21T12:15:06;1.40;;;1.30;;
12654;SDS011;6392;44.644;11.448;2022-08-21T12:17:52;1.50;;;1.40;;
12654;SDS011;6392;44.644;11.448;2022-08-21T12:20:38;1.30;;;1.10;;
12654;SDS011;6392;44.644;11.448;2022-08-21T12:23:17;1.30;;;1.17;;
12654;SDS011;6392;44.644;11.448;2022-08-21T12:26:00;1.20;;;1.10;;
12654;SDS011;6392;44.644;11.448;2022-08-21T12:28:30;2.50;;;1.37;;
12654;SDS011;6392;44.644;11.448;2022-08-21T12:30:57;1.20;;;1.10;;
12654;SDS011;6392;44.644;11.448;2022-08-21T12:33:27;1.60;;;1.50;;
12654;SDS011;6392;44.644;11.448;2022-08-21T12:36:02;2.53;;;1.20;;
12654;SDS011;6392;44.644;11.448;2022-08-21T12:38:33;2.30;;;1.27;;
12654;SDS011;6392;44.644;11.448;2022-08-21T12:41:11;1.30;;;1.20;;
12654;SDS011;6392;44.644;11.448;2022-08-21T12:43:43;1.20;;;1.10;;
12654;SDS011;6392;44.644;11.448;2022-08-21T12:46:15;1.33;;;1.23;;
12654;SDS011;6392;44.644;11.448;2022-08-21T12:48:45;2.00;;;1.77;;
12654;SDS011;6392;44.644;11.448;2022-08-21T12:51:17;1.20;;;1.10;;
12654;SDS011;6392;44.644;11.448;2022-08-21T12:53:49;1.20;;;1.10;;
12654;SDS011;6392;44.644;11.448;2022-08-21T12:56:20;1.00;;;1.00;;
12654;SDS011;6392;44.644;11.448;2022-08-21T12:58:50;1.30;;;1.20;;
12654;SDS011;6392;44.644;11.448;2022-08-21T13:01:21;1.13;;;1.03;;
12654;SDS011;6392;44.644;11.448;2022-08-21T13:03:50;2.43;;;1.30;;
12654;SDS011;6392;44.644;11.448;2022-08-21T13:06:19;1.17;;;1.07;;
12654;SDS011;6392;44.644;11.448;2022-08-21T13:08:47;1.20;;;1.10;;
12654;SDS011;6392;44.644;11.448;2022-08-21T13:11:22;1.10;;;1.00;;
12654;SDS011;6392;44.644;11.448;2022-08-21T13:13:50;1.40;;;1.30;;
12654;SDS011;6392;44.644;11.448;2022-08-21T13:16:19;1.10;;;1.00;;
12654;SDS011;6392;44.644;11.448;2022-08-21T13:18:54;1.53;;;1.30;;
12654;SDS011;6392;44.644;11.448;2022-08-21T13:21:27;1.33;;;1.23;;
12654;SDS011;6392;44.644;11.448;2022-08-21T13:24:08;1.40;;;1.30;;
12654;SDS011;6392;44.644;11.448;2022-08-21T13:26:40;1.23;;;1.13;;
12654;SDS011;6392;44.644;11.448;2022-08-21T13:29:09;1.27;;;1.07;;
12654;SDS011;6392;44.644;11.448;2022-08-21T13:31:38;1.30;;;1.20;;
12654;SDS011;6392;44.644;11.448;2022-08-21T13:34:08;1.07;;;1.00;;
12654;SDS011;6392;44.644;11.448;2022-08-21T13:36:37;1.40;;;1.20;;
12654;SDS011;6392;44.644;11.448;2022-08-21T13:39:07;1.17;;;1.07;;
12654;SDS011;6392;44.644;11.448;2022-08-21T13:41:37;1.67;;;1.10;;
12654;SDS011;6392;44.644;11.448;2022-08-21T13:44:14;1.30;;;1.20;;
12654;SDS011;6392;44.644;11.448;2022-08-21T13:46:43;1.73;;;1.37;;
12654;SDS011;6392;44.644;11.448;2022-08-21T13:49:12;1.40;;;1.30;;
12654;SDS011;6392;44.644;11.448;2022-08-21T13:51:42;1.17;;;1.03;;
12654;SDS011;6392;44.644;11.448;2022-08-21T13:54:14;1.30;;;1.20;;
12654;SDS011;6392;44.644;11.448;2022-08-21T13:56:46;1.37;;;1.27;;
12654;SDS011;6392;44.644;11.448;2022-08-21T13:59:24;1.57;;;1.17;;
12654;SDS011;6392;44.644;11.448;2022-08-21T14:01:53;1.20;;;1.10;;
12654;SDS011;6392;44.644;11.448;2022-08-21T14:04:24;0.90;;;0.90;;
12654;SDS011;6392;44.644;11.448;2022-08-21T14:06:57;1.33;;;1.23;;
12654;SDS011;6392;44.644;11.448;2022-08-21T14:09:26;1.20;;;1.10;;
12654;SDS011;6392;44.644;11.448;2022-08-21T14:11:56;1.00;;;0.90;;
12654;SDS011;6392;44.644;11.448;2022-08-21T14:14:27;1.33;;;1.10;;
12654;SDS011;6392;44.644;11.448;2022-08-21T14:16:57;0.90;;;0.90;;
12654;SDS011;6392;44.644;11.448;2022-08-21T14:19:27;1.43;;;1.33;;
12654;SDS011;6392;44.644;11.448;2022-08-21T14:24:48;1.37;;;1.27;;
12654;SDS011;6392;44.644;11.448;2022-08-21T14:27:16;1.90;;;1.40;;
12654;SDS011;6392;44.644;11.448;2022-08-21T14:29:45;1.87;;;1.13;;
12654;SDS011;6392;44.644;11.448;2022-08-21T14:32:13;1.23;;;1.13;;
12654;SDS011;6392;44.644;11.448;2022-08-21T14:34:42;0.90;;;0.90;;
12654;SDS011;6392;44.644;11.448;2022-08-21T14:37:09;1.10;;;1.10;;
12654;SDS011;6392;44.644;11.448;2022-08-21T14:39:36;1.30;;;1.20;;
12654;SDS011;6392;44.644;11.448;2022-08-21T14:42:03;1.00;;;1.00;;
12654;SDS011;6392;44.644;11.448;2022-08-21T14:44:30;1.20;;;1.10;;
12654;SDS011;6392;44.644;11.448;2022-08-21T14:46:59;1.13;;;1.03;;
12654;SDS011;6392;44.644;11.448;2022-08-21T14:49:27;1.10;;;1.00;;
12654;SDS011;6392;44.644;11.448;2022-08-21T14:51:54;1.37;;;1.27;;
12654;SDS011;6392;44.644;11.448;2022-08-21T14:54:23;1.20;;;0.80;;
12654;SDS011;6392;44.644;11.448;2022-08-21T14:56:50;1.50;;;1.40;;
12654;SDS011;6392;44.644;11.448;2022-08-21T14:59:17;1.33;;;1.03;;
12654;SDS011;6392;44.644;11.448;2022-08-21T15:01:45;0.80;;;0.80;;
12654;SDS011;6392;44.644;11.448;2022-08-21T15:04:15;1.37;;;1.27;;
12654;SDS011;6392;44.644;11.448;2022-08-21T15:06:42;0.90;;;0.90;;
12654;SDS011;6392;44.644;11.448;2022-08-21T15:09:09;1.20;;;1.10;;